27TN weather

Memphis Police Department Heliport
Memphis, Tennessee, United States

Public forecast

Using degrees Fahrenheit for public forecast. Weather courtesy of forecast.io.

METAR (pilot weather report)

Closest report is Millington-Memphis Airport, 9.6 nm (17.8 km) NE. Retrieved 2019/09/21 17:50 UTC (52 minutes ago):

KNQA 211750Z 17008G13KT 10SM CLR 31/14 A3018

TAF (pilot weather forecast)

Closest forecast is Memphis International Airport, 12.6 nm (23.3 km) S. Retrieved 2019/09/21 18:24 UTC (18 minutes ago):

TAF KMEM 211722Z 2118/2224 18011KT P6SM SCT050 SCT250 FM220100 17007KT P6SM FEW050 FEW250 FM221500 19013G19KT P6SM SCT050 SCT250 FM222300 20011KT P6SM SCT050 BKN250